Terminal Aerodrome Forecast
Issued by NWS

Home | Current Version | Previous Version | Text Only | Print | Product List | Glossary On
Versions: 1 2 3 4 5 6 7 8 9 10 11 12 13 14 15 16 17 18 19 20 21 22 23 24 25
000
FTUS45 KBOU 261122
TAFBJC
TAF
KBJC 261122Z 2612/2712 VRB05KT P6SM SCT025 BKN040
      TEMPO 2612/2615 BKN025
     FM261500 08006KT P6SM SCT040 BKN100
     FM261800 11013KT P6SM VCTS SCT050CB BKN100
      TEMPO 2619/2623 5SM TSRA BKN050CB
     FM262300 15008KT P6SM VCTS SCT050CB BKN100
     FM270200 20008KT P6SM FEW050 SCT110 BKN150
     FM270600 36012KT P6SM SCT040 BKN060
     FM271000 02007KT P6SM SCT015 BKN025=

USA.gov is the U.S. government's official web portal to all federal, state and local government web resources and services.